Time;durP1;ratioP1;P1;durP2;ratioP2;P2;SDS_P1;SDS_P2;PMS_P1;PMS_P2;Temp;Humidity;BMP_temperature;BMP_pressure;BME280_temperature;BME280_humidity;BME280_pressure;Samples;Min_cycle;Max_cycle;Signal;HPM_P1;HPM_P2
2022/06/04 00:00:56;;;;;;;4.88;4.13;;;;;;;18.33;54.96;100390.94;4965515;28;20116;-78
2022/06/04 00:03:23;;;;;;;4.68;3.95;;;;;;;18.31;54.84;100393.56;4997759;28;20387;-79
2022/06/04 00:05:54;;;;;;;5.90;3.83;;;;;;;18.29;55.46;100378.91;4981294;28;20030;-79
2022/06/04 00:08:20;;;;;;;3.42;3.10;;;;;;;18.29;55.18;100379.69;4980577;28;20022;-80
2022/06/04 00:16:35;;;;;;;3.80;3.33;;;;;;;18.19;56.31;100371.88;4999845;28;20096;-77
2022/06/04 00:19:01;;;;;;;5.78;4.43;;;;;;;18.15;55.72;100371.38;5015108;28;20033;-76
2022/06/04 00:21:26;;;;;;;5.32;4.15;;;;;;;18.11;56.08;100360.88;4996250;28;20399;-77
2022/06/04 00:23:53;;;;;;;5.55;4.07;;;;;;;18.09;55.91;100354.09;5013733;28;20483;-77
2022/06/04 00:26:24;;;;;;;6.15;3.90;;;;;;;18.05;56.35;100351.50;4992021;28;20181;-78
2022/06/04 00:28:50;;;;;;;4.30;3.80;;;;;;;17.98;56.47;100348.38;4993954;28;20022;-77
2022/06/04 00:31:17;;;;;;;5.47;3.97;;;;;;;17.94;56.77;100342.88;4960121;28;20391;-77
2022/06/04 00:33:43;;;;;;;4.32;3.58;;;;;;;17.94;56.64;100342.88;4993634;28;20043;-78
2022/06/04 00:36:10;;;;;;;4.75;3.40;;;;;;;17.95;56.57;100355.19;4994908;28;20026;-78
2022/06/04 00:38:36;;;;;;;5.28;4.72;;;;;;;17.90;56.93;100341.59;4977260;28;20034;-77
2022/06/04 00:41:30;;;;;;;3.65;3.33;;;;;;;17.91;57.21;100341.03;4994256;28;20077;-79
2022/06/04 00:44:01;;;;;;;4.82;3.67;;;;;;;17.88;57.19;100329.81;4977114;28;20121;-78
2022/06/04 00:47:01;;;;;;;3.88;3.25;;;;;;;17.83;58.00;100333.47;4977070;28;20387;-78
2022/06/04 00:49:27;;;;;;;5.60;3.53;;;;;;;17.74;57.33;100322.25;4994405;28;20034;-78
2022/06/04 00:52:02;;;;;;;6.25;4.10;;;;;;;17.78;57.83;100328.53;4977023;28;20034;-78
2022/06/04 00:54:29;;;;;;;4.43;4.00;;;;;;;17.74;58.50;100334.56;4994730;28;20035;-78
2022/06/04 00:57:29;;;;;;;4.68;3.65;;;;;;;17.71;58.65;100335.63;4994846;28;20482;-78
2022/06/04 01:00:25;;;;;;;5.20;3.63;;;;;;;17.68;58.45;100325.94;4947797;28;20045;-78
2022/06/04 01:03:09;;;;;;;4.72;3.75;;;;;;;17.65;58.50;100314.69;4994571;28;20061;-79
2022/06/04 01:05:54;;;;;;;4.30;3.85;;;;;;;17.64;58.45;100304.47;4994463;28;20018;-78
2022/06/04 01:08:20;;;;;;;5.80;4.18;;;;;;;17.59;58.56;100308.94;4994566;28;20033;-79
2022/06/04 01:11:27;;;;;;;6.65;4.35;;;;;;;17.56;59.74;100315.72;4994582;28;20483;-78
2022/06/04 01:14:11;;;;;;;4.63;4.13;;;;;;;17.56;58.58;100324.34;4975798;28;20076;-78
2022/06/04 01:17:26;;;;;;;5.22;4.13;;;;;;;17.57;59.77;100314.41;4976781;28;20049;-77
2022/06/04 01:20:20;;;;;;;4.53;4.00;;;;;;;17.58;59.20;100318.06;4969798;28;20121;-77
2022/06/04 01:22:48;;;;;;;4.90;4.43;;;;;;;17.56;58.75;100309.94;4976977;28;20118;-77
2022/06/04 01:25:31;;;;;;;7.63;4.40;;;;;;;17.57;59.67;100305.78;4994261;28;20542;-77
2022/06/04 01:28:02;;;;;;;6.63;5.10;;;;;;;17.55;59.45;100304.75;4994628;28;20042;-76
2022/06/04 01:30:34;;;;;;;;;;;;;;;17.51;60.23;100299.25;4977627;28;20030;-78
2022/06/04 01:33:10;;;;;;;4.18;3.78;;;;;;;17.41;59.63;100294.31;4994889;28;19917;-78
2022/06/04 01:35:56;;;;;;;6.43;4.43;;;;;;;17.47;60.21;100310.25;4923668;29;20051;-77
2022/06/04 01:38:33;;;;;;;5.60;4.30;;;;;;;17.46;60.19;100302.16;4954534;29;20106;-77
2022/06/04 01:41:13;;;;;;;6.45;3.92;;;;;;;17.47;60.23;100300.81;4954376;29;20032;-77
2022/06/04 01:44:06;;;;;;;4.78;4.05;;;;;;;17.44;60.46;100299.00;4954345;29;20045;-78
2022/06/04 01:46:35;;;;;;;3.78;3.33;;;;;;;17.42;60.05;100296.63;4954453;29;20034;-78
2022/06/04 01:49:14;;;;;;;4.97;4.13;;;;;;;17.41;60.86;100305.81;4953959;28;20496;-79
2022/06/04 01:51:40;;;;;;;7.13;3.78;;;;;;;17.42;59.84;100313.13;4954101;28;20421;-78
2022/06/04 01:54:29;;;;;;;4.75;3.90;;;;;;;17.47;60.87;100318.88;4953795;29;20031;-78
2022/06/04 01:57:04;;;;;;;5.90;4.47;;;;;;;17.51;59.94;100318.63;4952393;28;20031;-78
2022/06/04 01:59:46;;;;;;;4.53;4.13;;;;;;;17.56;60.28;100317.84;4938876;29;20054;-77
2022/06/04 02:02:31;;;;;;;;;;;;;;;17.59;60.52;100326.22;4938721;29;20039;-77
2022/06/04 02:05:00;;;;;;;6.05;4.07;;;;;;;17.60;60.21;100324.13;4954417;29;20351;-78
2022/06/04 02:07:38;;;;;;;4.63;3.97;;;;;;;17.62;60.17;100344.53;4953968;29;20034;-78
2022/06/04 02:10:11;;;;;;;5.40;4.30;;;;;;;17.66;61.01;100356.59;4953790;29;20027;-78
2022/06/04 02:12:40;;;;;;;5.03;4.22;;;;;;;17.72;60.95;100350.81;4938286;29;20031;-78
2022/06/04 02:15:16;;;;;;;5.82;4.70;;;;;;;17.68;61.41;100336.69;4937785;29;20050;-79
2022/06/04 02:17:46;;;;;;;5.13;3.95;;;;;;;17.66;61.13;100322.03;4939163;29;20434;-78
2022/06/04 02:20:13;;;;;;;5.95;4.30;;;;;;;17.63;61.05;100317.31;4938322;29;20039;-77
2022/06/04 02:22:40;;;;;;;5.38;3.75;;;;;;;17.60;60.79;100316.28;4953882;29;20159;-78
2022/06/04 02:25:08;;;;;;;3.88;3.47;;;;;;;17.62;60.98;100309.97;4953766;29;20050;-78
2022/06/04 02:27:35;;;;;;;4.90;4.20;;;;;;;17.62;61.05;100307.09;4937773;29;20031;-78
2022/06/04 02:30:03;;;;;;;5.82;5.22;;;;;;;17.60;61.18;100303.97;4921916;28;20039;-78
2022/06/04 02:32:34;;;;;;;5.50;4.50;;;;;;;17.59;61.72;100308.94;4957832;28;20031;-78
2022/06/04 02:35:15;;;;;;;5.72;4.00;;;;;;;17.46;63.01;100317.34;4971050;28;20061;-77
2022/06/04 02:38:00;;;;;;;7.50;4.68;;;;;;;17.39;63.64;100314.19;4960294;28;20090;-78
2022/06/04 02:40:48;;;;;;;5.65;4.68;;;;;;;17.43;64.44;100315.50;4978032;28;20069;-76
2022/06/04 02:43:24;;;;;;;5.22;4.60;;;;;;;17.50;64.79;100319.94;4976414;28;20026;-78
2022/06/04 02:46:26;;;;;;;5.07;4.53;;;;;;;17.52;64.15;100312.31;4976367;28;20065;-79
2022/06/04 02:49:10;;;;;;;5.57;4.68;;;;;;;17.58;64.51;100318.06;4977716;28;20387;-78
2022/06/04 02:51:44;;;;;;;4.18;3.78;;;;;;;17.62;63.71;100318.63;4976152;28;20411;-77
2022/06/04 02:54:19;;;;;;;5.68;4.93;;;;;;;17.64;63.88;100318.88;4977351;28;20071;-77
2022/06/04 02:56:47;;;;;;;5.07;4.55;;;;;;;17.59;64.18;100314.72;4960218;28;20093;-78
2022/06/04 02:59:14;;;;;;;7.97;5.53;;;;;;;17.59;64.94;100314.72;4960300;28;20049;-76
2022/06/04 03:01:51;;;;;;;10.38;5.38;;;;;;;17.53;76.71;100310.22;4960251;28;20039;-76
2022/06/04 03:04:17;;;;;;;5.82;5.22;;;;;;;17.44;75.43;100307.63;4976001;28;20031;-77
2022/06/04 03:06:42;;;;;;;7.57;6.13;;;;;;;17.19;76.41;100283.59;4975990;28;20026;-77
2022/06/04 03:09:11;;;;;;;6.38;5.70;;;;;;;17.11;76.94;100297.75;4959903;28;20041;-76
2022/06/04 03:11:46;;;;;;;5.80;5.22;;;;;;;16.95;79.93;100294.88;4975948;28;20066;-77
2022/06/04 03:14:14;;;;;;;8.35;5.75;;;;;;;16.81;80.09;100297.50;4977033;28;20476;-78
2022/06/04 03:16:43;;;;;;;7.05;5.07;;;;;;;16.76;79.60;100300.38;4959700;28;20181;-78
2022/06/04 03:19:10;;;;;;;6.35;4.90;;;;;;;16.73;79.58;100301.41;4975843;28;20464;-77
2022/06/04 03:21:37;;;;;;;8.32;5.45;;;;;;;16.68;80.27;100296.44;4959616;28;20041;-78
2022/06/04 03:24:05;;;;;;;8.88;5.63;;;;;;;16.69;80.72;100295.13;4959400;28;20099;-78
2022/06/04 03:26:31;;;;;;;6.80;5.85;;;;;;;16.67;80.61;100301.44;4975638;28;20090;-78
2022/06/04 03:28:57;;;;;;;7.28;5.65;;;;;;;16.68;80.97;100299.31;4975808;28;20038;-77
2022/06/04 03:31:25;;;;;;;8.02;6.25;;;;;;;16.69;83.01;100306.63;4959335;28;20395;-77
2022/06/04 03:33:50;;;;;;;8.27;6.22;;;;;;;16.68;82.30;100302.97;4938786;29;20055;-78
2022/06/04 03:36:16;;;;;;;8.40;7.50;;;;;;;16.71;82.85;100295.41;4957173;28;20081;-77
2022/06/04 03:38:41;;;;;;;7.88;6.68;;;;;;;16.77;82.91;100310.59;4955935;28;20030;-78
2022/06/04 03:41:07;;;;;;;7.35;5.68;;;;;;;16.78;82.23;100307.16;4957097;28;20033;-78
2022/06/04 03:43:34;;;;;;;8.55;6.70;;;;;;;16.79;81.21;100305.88;4957022;28;20154;-78
2022/06/04 03:46:00;;;;;;;10.23;7.03;;;;;;;16.70;81.54;100285.22;4957243;29;20031;-78
2022/06/04 03:48:26;;;;;;;8.93;6.45;;;;;;;16.86;81.64;100306.66;4957135;28;20042;-77
2022/06/04 03:50:51;;;;;;;8.45;6.40;;;;;;;16.93;81.42;100317.63;4956791;29;20023;-78
2022/06/04 03:53:17;;;;;;;8.52;6.68;;;;;;;16.95;81.56;100310.06;4956988;29;20521;-77
2022/06/04 03:55:44;;;;;;;7.78;6.97;;;;;;;17.01;81.67;100313.72;4955619;29;20023;-77
2022/06/04 03:58:10;;;;;;;7.38;6.22;;;;;;;16.97;82.03;100301.66;4955720;29;20045;-77
2022/06/04 04:00:39;;;;;;;8.48;6.95;;;;;;;17.07;82.30;100317.38;4956760;28;20034;-77
2022/06/04 04:03:12;;;;;;;9.00;6.80;;;;;;;17.10;82.19;100315.53;4939772;29;20115;-78
2022/06/04 04:05:41;;;;;;;12.95;5.93;;;;;;;17.08;82.35;100313.19;4955322;29;20031;-78
2022/06/04 04:08:09;;;;;;;6.45;5.78;;;;;;;17.07;81.76;100313.72;4955690;28;20046;-79
2022/06/04 04:10:39;;;;;;;7.25;5.75;;;;;;;17.04;82.66;100321.31;4939648;29;20102;-77
2022/06/04 04:13:05;;;;;;;8.80;6.60;;;;;;;17.02;82.66;100328.91;4959200;29;20039;-77
2022/06/04 04:15:32;;;;;;;7.80;6.63;;;;;;;16.99;82.69;100333.59;4958902;28;20031;-77
2022/06/04 04:18:00;;;;;;;8.10;6.70;;;;;;;16.95;82.48;100333.09;4956168;28;20031;-77
2022/06/04 04:20:30;;;;;;;11.23;6.95;;;;;;;16.94;82.42;100334.38;4956901;28;20035;-77
2022/06/04 04:22:57;;;;;;;7.22;6.40;;;;;;;16.96;82.33;100342.50;4955286;29;20035;-78
2022/06/04 04:25:25;;;;;;;7.00;5.90;;;;;;;16.93;84.12;100340.66;4955189;29;20468;-77
2022/06/04 04:27:52;;;;;;;17.70;6.93;;;;;;;17.03;84.51;100347.72;4956494;28;20086;-77
2022/06/04 04:30:23;;;;;;;7.20;6.18;;;;;;;17.02;85.21;100343.28;4939023;29;20035;-77
2022/06/04 04:32:50;;;;;;;6.43;5.38;;;;;;;17.02;83.98;100354.81;4956740;28;20468;-78
2022/06/04 04:35:19;;;;;;;9.85;6.32;;;;;;;17.04;85.60;100343.53;4954427;28;20055;-78
2022/06/04 04:37:45;;;;;;;7.25;6.10;;;;;;;17.05;86.03;100353.75;4958115;28;20120;-78
2022/06/04 04:40:14;;;;;;;9.15;6.65;;;;;;;17.07;85.37;100356.91;4974563;28;20468;-78
2022/06/04 04:42:39;;;;;;;7.90;6.93;;;;;;;16.89;89.11;100381.19;4958263;28;20042;-78
2022/06/04 04:45:07;;;;;;;11.25;7.07;;;;;;;16.75;90.13;100374.38;4958070;28;20376;-78
2022/06/04 04:47:35;;;;;;;10.73;7.35;;;;;;;16.72;90.75;100377.53;4973992;28;20041;-78
2022/06/04 04:50:04;;;;;;;8.07;6.88;;;;;;;16.63;91.20;100389.25;4974043;28;20034;-77
2022/06/04 04:52:29;;;;;;;9.65;7.43;;;;;;;16.57;90.64;100374.84;4958122;28;20062;-77
2022/06/04 04:54:55;;;;;;;9.13;7.25;;;;;;;16.62;91.65;100381.94;4974763;28;20066;-76
2022/06/04 04:57:22;;;;;;;8.77;6.80;;;;;;;16.67;91.30;100372.56;4975146;28;20042;-78
2022/06/04 04:59:49;;;;;;;10.20;7.63;;;;;;;16.79;91.31;100380.66;4975337;28;20098;-80
2022/06/04 05:02:14;;;;;;;7.25;6.55;;;;;;;16.83;90.62;100389.81;4975124;28;20093;-77
2022/06/04 05:04:41;;;;;;;11.73;7.65;;;;;;;16.90;90.74;100402.91;4974516;28;20042;-77
2022/06/04 05:07:06;;;;;;;10.30;8.65;;;;;;;16.94;91.02;100406.31;4975114;28;20114;-78
2022/06/04 05:09:32;;;;;;;10.88;8.30;;;;;;;16.91;91.27;100407.38;4974937;28;20101;-78
2022/06/04 05:11:58;;;;;;;10.93;7.88;;;;;;;17.07;90.86;100420.22;4974861;28;20035;-78
2022/06/04 05:14:23;;;;;;;12.68;8.05;;;;;;;17.05;90.69;100429.38;4973502;28;20033;-77
2022/06/04 05:16:50;;;;;;;8.77;7.85;;;;;;;16.99;91.69;100425.69;4957103;28;20400;-77
2022/06/04 05:19:16;;;;;;;10.07;6.97;;;;;;;16.95;91.75;100430.91;4974989;28;20059;-78
2022/06/04 05:21:46;;;;;;;11.82;7.38;;;;;;;17.00;90.73;100432.22;4974851;28;20542;-78
2022/06/04 05:24:26;;;;;;;8.43;7.30;;;;;;;17.02;91.83;100435.38;4974663;28;20046;-79
2022/06/04 05:26:52;;;;;;;10.85;7.85;;;;;;;17.05;91.47;100438.00;4974325;28;20065;-78
2022/06/04 05:29:19;;;;;;;11.18;7.75;;;;;;;17.08;91.00;100436.16;4973386;28;20038;-78
2022/06/04 05:31:46;;;;;;;10.73;8.18;;;;;;;17.10;90.72;100430.69;4981191;28;20160;-76
2022/06/04 05:34:15;;;;;;;12.50;8.40;;;;;;;17.11;90.52;100443.78;4968870;28;20497;-78
2022/06/04 05:36:42;;;;;;;11.75;8.45;;;;;;;17.06;90.58;100433.81;4957043;28;20369;-78
2022/06/04 05:39:10;;;;;;;11.85;9.10;;;;;;;17.17;91.16;100447.41;4938634;29;20067;-79
2022/06/04 05:41:38;;;;;;;15.25;9.32;;;;;;;17.24;91.72;100432.53;4938066;29;20039;-78
2022/06/04 05:44:04;;;;;;;13.88;8.93;;;;;;;17.33;90.99;100440.91;4954033;29;20027;-78
2022/06/04 05:46:32;;;;;;;12.95;9.63;;;;;;;17.38;91.28;100434.34;4938351;29;20050;-77
2022/06/04 05:49:03;;;;;;;12.40;9.05;;;;;;;17.49;90.44;100431.47;4954050;29;20038;-77
2022/06/04 05:51:30;;;;;;;11.77;9.20;;;;;;;17.61;89.62;100440.94;4957197;28;20114;-77
2022/06/04 05:54:11;;;;;;;11.85;8.68;;;;;;;17.75;89.99;100428.34;4941009;28;20027;-77
2022/06/04 05:56:39;;;;;;;12.30;8.97;;;;;;;17.84;90.47;100428.06;4973451;28;20031;-77
2022/06/04 05:59:09;;;;;;;11.63;8.82;;;;;;;17.98;89.67;100431.97;4959628;28;20301;-78
2022/06/04 06:01:38;;;;;;;12.82;9.25;;;;;;;18.07;89.18;100429.56;4923180;29;20031;-76
2022/06/04 06:04:06;;;;;;;15.65;11.38;;;;;;;18.25;89.05;100441.84;4981549;28;20031;-80
2022/06/04 06:06:34;;;;;;;12.40;9.35;;;;;;;18.34;88.20;100444.44;4944541;29;20545;-79
2022/06/04 06:09:04;;;;;;;13.50;9.88;;;;;;;18.45;87.63;100444.41;4922730;29;20114;-77
2022/06/04 06:11:31;;;;;;;11.52;8.50;;;;;;;18.57;86.22;100448.81;4938577;29;20051;-79
2022/06/04 06:13:57;;;;;;;10.73;9.10;;;;;;;18.73;85.70;100432.75;4922435;29;20047;-78
2022/06/04 06:16:26;;;;;;;12.65;9.30;;;;;;;18.96;85.49;100432.06;4922503;29;20122;-79
2022/06/04 06:18:54;;;;;;;14.60;10.35;;;;;;;19.22;84.73;100436.63;4939237;29;20063;-78
2022/06/04 06:21:25;;;;;;;18.55;12.55;;;;;;;19.45;84.15;100437.25;4938176;29;20528;-77
2022/06/04 06:23:59;;;;;;;22.05;13.40;;;;;;;19.58;83.59;100423.75;4937859;29;20061;-77
2022/06/04 06:26:59;;;;;;;21.17;13.07;;;;;;;19.68;83.05;100422.09;4939518;29;20076;-75
2022/06/04 06:29:29;;;;;;;18.20;11.57;;;;;;;19.94;82.67;100414.97;4941150;28;20064;-72
2022/06/04 06:31:56;;;;;;;15.13;10.35;;;;;;;20.10;82.67;100411.91;4953938;28;20481;-76
2022/06/04 06:34:23;;;;;;;17.55;12.15;;;;;;;20.18;81.74;100412.06;4962252;28;20062;-75
2022/06/04 06:36:49;;;;;;;18.17;10.75;;;;;;;20.28;80.92;100416.94;4925245;29;20039;-74
2022/06/04 06:39:15;;;;;;;10.43;8.52;;;;;;;20.38;80.13;100417.38;4943771;29;20389;-75
2022/06/04 06:41:42;;;;;;;12.63;9.60;;;;;;;20.54;80.00;100433.75;4967014;28;20037;-76
2022/06/04 06:44:10;;;;;;;13.70;8.38;;;;;;;20.71;79.11;100435.66;4964195;28;20424;-76
2022/06/04 06:46:49;;;;;;;11.35;8.80;;;;;;;20.88;78.52;100428.28;4973652;28;20030;-74
2022/06/04 06:49:23;;;;;;;9.52;8.27;;;;;;;21.01;79.32;100439.97;4963177;28;20118;-75
2022/06/04 06:51:55;;;;;;;9.40;8.18;;;;;;;21.12;77.97;100436.88;4965122;28;20535;-75
2022/06/04 06:54:34;;;;;;;12.00;8.30;;;;;;;21.33;77.02;100436.34;4958240;29;20023;-74
2022/06/04 06:57:04;;;;;;;11.23;7.70;;;;;;;21.47;75.43;100438.72;4958775;28;20029;-75
2022/06/04 06:59:30;;;;;;;12.43;9.05;;;;;;;21.47;74.55;100438.72;4967208;28;20146;-74
2022/06/04 07:01:57;;;;;;;11.32;8.40;;;;;;;21.44;75.45;100433.25;4989148;28;20093;-74
2022/06/04 07:04:28;;;;;;;12.00;8.90;;;;;;;21.48;74.01;100430.81;4990183;28;20156;-74
2022/06/04 07:07:00;;;;;;;10.93;8.05;;;;;;;21.50;74.68;100428.16;4958746;28;20098;-78
2022/06/04 07:09:33;;;;;;;10.88;8.93;;;;;;;21.43;74.54;100423.00;4983253;28;20019;-80
2022/06/04 07:11:59;;;;;;;13.95;10.20;;;;;;;21.36;75.23;100424.41;4959056;28;20042;-77
2022/06/04 07:14:25;;;;;;;13.70;9.55;;;;;;;21.10;76.45;100415.59;4987094;28;20364;-76
2022/06/04 07:16:52;;;;;;;11.07;8.25;;;;;;;20.91;76.38;100420.63;4952239;28;20130;-76
2022/06/04 07:19:19;;;;;;;11.45;8.75;;;;;;;20.46;78.50;100429.13;4959267;28;20031;-77
2022/06/04 07:21:45;;;;;;;10.25;7.75;;;;;;;20.46;78.75;100424.13;4964487;28;20035;-77
2022/06/04 07:24:11;;;;;;;10.25;8.32;;;;;;;20.52;77.97;100418.28;4963765;28;20094;-76
2022/06/04 07:26:36;;;;;;;14.07;9.18;;;;;;;20.52;77.43;100419.03;4972368;28;20041;-77
2022/06/04 07:29:03;;;;;;;10.20;8.70;;;;;;;20.57;77.62;100429.00;4962282;28;20031;-75
2022/06/04 07:31:29;;;;;;;11.02;8.70;;;;;;;20.61;77.68;100432.38;4967089;28;20058;-75
2022/06/04 07:33:56;;;;;;;9.70;7.93;;;;;;;20.73;76.62;100432.97;4979216;28;20050;-78
2022/06/04 07:36:36;;;;;;;11.52;9.02;;;;;;;20.79;76.04;100436.59;4997741;28;20438;-76
2022/06/04 07:39:04;;;;;;;17.42;10.32;;;;;;;20.76;75.81;100426.91;4959137;28;20054;-75
2022/06/04 07:41:33;;;;;;;15.57;10.15;;;;;;;20.82;75.88;100415.25;4978233;28;20030;-77
2022/06/04 07:43:59;;;;;;;9.55;7.63;;;;;;;20.90;74.26;100424.84;4975962;28;20034;-76
2022/06/04 07:46:26;;;;;;;13.52;9.23;;;;;;;20.95;74.39;100426.88;4991360;28;20490;-76
2022/06/04 07:48:53;;;;;;;9.88;8.20;;;;;;;20.92;74.24;100410.63;4993242;28;20034;-75
2022/06/04 07:51:19;;;;;;;11.20;7.43;;;;;;;21.07;73.47;100422.47;4993716;28;20037;-77
2022/06/04 07:53:44;;;;;;;10.98;8.50;;;;;;;21.05;73.31;100425.16;4994999;28;20030;-75
2022/06/04 07:56:12;;;;;;;9.95;8.02;;;;;;;21.10;75.05;100430.88;4995754;28;20030;-76
2022/06/04 07:58:38;;;;;;;9.23;6.85;;;;;;;21.34;74.69;100432.09;4977006;28;20557;-76
2022/06/04 08:01:05;;;;;;;11.20;7.75;;;;;;;21.48;73.86;100425.81;4976444;28;20061;-78
2022/06/04 08:03:33;;;;;;;9.98;8.30;;;;;;;21.57;72.97;100426.72;4994926;28;20026;-77
2022/06/04 08:05:59;;;;;;;11.38;8.02;;;;;;;21.67;72.78;100419.16;4961845;28;20030;-77
2022/06/04 08:08:24;;;;;;;12.20;8.77;;;;;;;21.53;72.47;100410.44;4978049;28;20041;-76
2022/06/04 08:10:50;;;;;;;14.13;9.32;;;;;;;21.82;72.26;100410.69;4978762;28;20113;-76
2022/06/04 08:13:25;;;;;;;11.20;8.52;;;;;;;22.20;71.48;100426.59;4991927;28;20027;-77
2022/06/04 08:15:53;;;;;;;8.73;7.63;;;;;;;22.50;69.77;100428.41;4973618;28;20103;-77
2022/06/04 08:18:18;;;;;;;8.50;7.63;;;;;;;22.65;69.44;100423.56;4988216;28;20026;-77
2022/06/04 08:20:45;;;;;;;10.27;7.22;;;;;;;22.93;67.91;100431.69;4968101;28;20113;-77
2022/06/04 08:23:11;;;;;;;8.68;7.22;;;;;;;23.01;64.65;100423.84;4993719;28;20112;-78
2022/06/04 08:25:45;;;;;;;7.15;6.40;;;;;;;23.21;63.66;100439.75;4993746;28;20023;-76
2022/06/04 08:28:10;;;;;;;7.88;6.30;;;;;;;23.51;62.56;100437.19;4977036;28;20026;-75
2022/06/04 08:30:36;;;;;;;7.93;7.13;;;;;;;23.93;63.17;100440.06;4976911;28;20073;-77
2022/06/04 08:33:03;;;;;;;9.00;6.90;;;;;;;24.31;61.43;100432.44;4995015;28;20456;-76
2022/06/04 08:35:28;;;;;;;9.10;7.00;;;;;;;24.88;59.49;100438.97;4996306;28;20069;-77
2022/06/04 08:37:54;;;;;;;8.02;5.90;;;;;;;25.31;57.15;100437.34;4999396;28;20480;-77
2022/06/04 08:40:32;;;;;;;7.85;6.93;;;;;;;25.71;55.53;100450.06;4998055;28;20030;-75
2022/06/04 08:43:18;;;;;;;15.40;7.03;;;;;;;25.86;54.20;100446.38;4993807;28;20034;-76
2022/06/04 08:45:44;;;;;;;7.78;6.43;;;;;;;26.14;53.04;100448.34;4977914;28;20070;-77
2022/06/04 08:48:37;;;;;;;9.85;5.03;;;;;;;26.12;51.49;100459.81;4993273;28;20183;-76
2022/06/04 08:51:03;;;;;;;7.40;4.70;;;;;;;26.10;51.11;100450.88;4989976;28;20121;-77
2022/06/04 08:53:30;;;;;;;6.97;6.28;;;;;;;26.18;50.61;100461.19;4993251;28;20026;-77
2022/06/04 08:58:58;;;;;;;7.38;6.00;;;;;;;26.31;51.13;100451.44;4993539;28;20057;-77
2022/06/04 09:01:34;;;;;;;10.25;6.80;;;;;;;26.24;51.28;100457.31;4969724;28;20388;-78
2022/06/04 09:04:21;;;;;;;7.47;6.68;;;;;;;26.40;50.65;100458.81;5010294;28;20030;-77
2022/06/04 09:07:25;;;;;;;7.43;6.72;;;;;;;26.75;50.60;100459.91;4987738;28;20068;-77
2022/06/04 09:10:24;;;;;;;8.82;6.38;;;;;;;26.83;49.39;100473.16;4975905;28;20043;-78
2022/06/04 09:12:55;;;;;;;7.22;6.18;;;;;;;26.94;48.55;100463.16;4982579;28;20093;-78
2022/06/04 09:15:35;;;;;;;7.82;6.70;;;;;;;27.05;48.20;100471.50;4957653;28;20114;-80
2022/06/04 09:18:11;;;;;;;7.03;6.33;;;;;;;27.01;49.15;100471.13;4965569;28;20072;-79
2022/06/04 09:20:46;;;;;;;5.65;5.00;;;;;;;27.07;48.26;100457.09;5009342;28;20490;-76
2022/06/04 09:23:16;;;;;;;5.63;5.13;;;;;;;27.18;47.74;100485.91;4993936;28;20598;-76
2022/06/04 09:25:47;;;;;;;9.53;5.70;;;;;;;26.82;48.77;100491.25;4994291;28;20033;-79
2022/06/04 09:28:16;;;;;;;;;;;;;;;26.63;49.38;100492.50;4977351;28;20030;-78
2022/06/04 09:30:58;;;;;;;7.70;7.00;;;;;;;26.39;50.50;100493.13;4994305;28;19918;-80
2022/06/04 09:33:38;;;;;;;7.28;6.57;;;;;;;26.14;50.57;100504.59;4947147;28;20084;-81
2022/06/04 09:36:04;;;;;;;9.45;6.90;;;;;;;26.08;51.09;100497.38;4994818;28;20048;-81
2022/06/04 09:38:33;;;;;;;7.50;6.43;;;;;;;26.07;51.40;100501.66;4977036;28;20030;-77
2022/06/04 09:41:07;;;;;;;6.97;6.28;;;;;;;26.06;51.37;100505.94;4962578;28;20519;-80
2022/06/04 09:43:33;;;;;;;8.55;6.78;;;;;;;26.13;50.98;100496.41;4999939;28;20030;-80
2022/06/04 09:46:00;;;;;;;6.47;5.88;;;;;;;26.40;51.04;100491.75;4974173;28;20033;-78
2022/06/04 09:48:29;;;;;;;8.65;6.13;;;;;;;26.80;49.60;100482.28;4993422;28;20057;-78
2022/06/04 09:50:58;;;;;;;10.25;6.65;;;;;;;27.06;49.72;100487.69;4961155;28;20034;-78
2022/06/04 09:53:33;;;;;;;10.02;6.18;;;;;;;27.17;49.23;100489.41;4964651;28;20050;-80
2022/06/04 09:56:14;;;;;;;8.13;5.60;;;;;;;27.36;48.32;100502.19;5006419;28;20086;-78
2022/06/04 09:58:46;;;;;;;6.95;5.20;;;;;;;27.57;48.24;100504.84;4980614;28;20034;-79
2022/06/04 10:01:14;;;;;;;;;;;;;;;27.73;46.85;100500.41;5008399;28;20118;-78
2022/06/04 10:03:59;;;;;;;5.80;4.88;;;;;;;27.97;46.50;100507.69;4977862;28;19914;-79
2022/06/04 10:06:26;;;;;;;5.47;4.80;;;;;;;27.90;46.18;100503.44;4992822;28;20109;-79
2022/06/04 10:11:49;;;;;;;5.68;5.15;;;;;;;28.16;44.94;100510.88;4950931;28;20053;-79
2022/06/04 10:14:38;;;;;;;5.47;4.97;;;;;;;28.40;44.81;100521.00;4945420;28;20034;-80
2022/06/04 10:17:06;;;;;;;8.00;5.88;;;;;;;28.49;44.46;100508.63;4969760;28;20234;-81
2022/06/04 10:19:34;;;;;;;6.78;6.15;;;;;;;28.58;44.53;100516.72;4967634;28;20046;-77
2022/06/04 10:22:13;;;;;;;5.72;5.22;;;;;;;28.55;43.00;100525.94;4986155;28;20027;-79
2022/06/04 10:25:17;;;;;;;8.80;6.53;;;;;;;28.55;44.57;100503.28;4981299;28;20033;-81
2022/06/04 10:28:00;;;;;;;8.80;5.90;;;;;;;28.49;46.08;100496.09;4938506;28;20480;-81
2022/06/04 10:30:31;;;;;;;6.85;6.15;;;;;;;28.67;44.59;100486.72;4992434;28;20035;-79
2022/06/04 10:33:06;;;;;;;7.15;6.20;;;;;;;28.84;44.42;100491.84;4976224;28;20038;-78
2022/06/04 10:35:57;;;;;;;6.78;5.68;;;;;;;28.92;43.92;100494.69;4977155;28;20054;-77
2022/06/04 10:38:53;;;;;;;5.53;5.03;;;;;;;28.88;43.09;100503.16;4977745;28;20034;-78
2022/06/04 10:41:31;;;;;;;6.50;5.53;;;;;;;28.73;42.55;100507.03;4977201;28;20039;-77
2022/06/04 10:44:18;;;;;;;6.15;5.47;;;;;;;28.66;43.33;100507.88;4977286;28;20476;-77
2022/06/04 10:46:59;;;;;;;5.55;5.05;;;;;;;28.53;43.08;100514.81;4992014;28;20392;-81
2022/06/04 10:49:43;;;;;;;8.63;5.82;;;;;;;28.41;44.19;100521.78;4977241;28;20468;-77
2022/06/04 10:52:18;;;;;;;5.82;5.22;;;;;;;28.31;43.73;100516.59;4976119;28;20457;-77
2022/06/04 10:55:06;;;;;;;5.35;4.85;;;;;;;28.58;43.82;100518.88;4959583;28;20491;-79
2022/06/04 10:57:38;;;;;;;5.75;4.97;;;;;;;29.03;44.91;100518.41;4993238;28;20064;-77
2022/06/04 11:00:18;;;;;;;;;;;;;;;29.24;41.40;100515.03;4977256;28;20045;-77
2022/06/04 11:03:13;;;;;;;5.57;5.07;;;;;;;29.17;41.51;100521.75;4976882;28;19910;-78
2022/06/04 11:05:56;;;;;;;5.40;4.90;;;;;;;29.27;40.68;100527.69;4974677;28;20043;-81
2022/06/04 11:09:04;;;;;;;5.03;4.53;;;;;;;29.21;40.84;100515.47;4988950;28;20032;-81
2022/06/04 11:11:39;;;;;;;4.88;4.38;;;;;;;28.67;41.81;100527.00;4979052;28;20364;-79
2022/06/04 11:14:10;;;;;;;5.65;4.80;;;;;;;28.72;42.58;100517.97;4995021;28;20034;-80
2022/06/04 11:16:52;;;;;;;;;;;;;;;28.70;41.33;100519.94;4997003;28;20057;-79
2022/06/04 11:19:31;;;;;;;7.40;5.15;;;;;;;28.37;42.04;100515.59;4995257;28;19917;-80
2022/06/04 11:22:01;;;;;;;6.47;5.28;;;;;;;27.69;44.73;100511.78;4995203;28;20038;-78
2022/06/04 11:24:29;;;;;;;5.88;4.50;;;;;;;27.70;44.99;100524.25;4996393;28;20023;-75
2022/06/04 11:27:02;;;;;;;5.88;4.75;;;;;;;27.80;45.61;100528.09;4998509;28;20030;-79
2022/06/04 11:29:28;;;;;;;6.70;4.78;;;;;;;28.00;45.55;100520.34;4998021;28;20057;-77
2022/06/04 11:32:15;;;;;;;6.80;5.28;;;;;;;27.85;44.97;100535.88;4996833;28;20065;-77
2022/06/04 11:35:24;;;;;;;5.20;4.32;;;;;;;27.63;43.57;100531.72;4978285;28;20096;-76
2022/06/04 11:38:02;;;;;;;5.43;4.93;;;;;;;27.59;44.73;100533.50;4984994;28;20076;-80
2022/06/04 11:41:02;;;;;;;6.25;4.72;;;;;;;27.85;45.40;100530.03;4994751;28;20116;-77
2022/06/04 11:43:42;;;;;;;4.82;4.32;;;;;;;28.02;44.65;100527.19;4930320;28;20043;-74
2022/06/04 11:46:50;;;;;;;4.68;4.22;;;;;;;28.11;45.87;100522.81;4994424;28;20026;-76
2022/06/04 11:49:55;;;;;;;8.50;5.30;;;;;;;27.58;45.84;100520.25;4993626;28;20072;-78
2022/06/04 11:52:32;;;;;;;5.30;4.80;;;;;;;27.81;47.03;100520.88;4964387;28;20125;-78
2022/06/04 11:55:26;;;;;;;5.45;3.90;;;;;;;27.64;46.18;100521.56;4977671;28;20401;-79
2022/06/04 11:58:13;;;;;;;5.32;4.20;;;;;;;27.65;46.29;100522.34;4995583;28;20033;-78
2022/06/04 12:00:41;;;;;;;5.78;4.43;;;;;;;27.45;45.37;100513.25;4995246;28;20029;-78
2022/06/04 12:03:23;;;;;;;4.50;4.10;;;;;;;27.52;46.42;100510.91;4977499;28;20053;-79